FMNM/MJN METAR and TAF weather

Enter ICAO airport designator
Station Type Date Time Source
FMNM METAR 2020/04/06 09:00 UTC NOAA

FMNM 060900Z 05007KT 360V090 9999 FEW020 34/21 Q1012 NOSIG


Station Type Date Time Source
FMNM Decoded METAR 2020/04/06 09:00 UTC NOAA

Majunga, Madagascar (FMNM) 15-40S 046-21E 18M
Apr 06, 2020 - 05:00 AM EDT / 2020.04.06 0900 UTC
Wind: from the NE (050 degrees) at 8 MPH (7 KT) (direction variable):0
Visibility: greater than 7 mile(s):0
Sky conditions: mostly clear
Temperature: 93 F (34 C)
Heat index: 98.4 F (36.9 C):1
Dew Point: 69 F (21 C)
Relative Humidity: 46%
Pressure (altimeter): 29.88 in. Hg (1012 hPa)
ob: FMNM 060900Z 05007KT 360V090 9999 FEW020 34/21 Q1012 NOSIG
cycle: 9

Station Type Date Time Source
FMNM TAF 2020/04/06 06:11 UTC NOAA

TAF FMNM 060500Z 0606/0706 10005KT 9999 SCT020
BECMG 0609/0612 34010KT
BECMG 0619/0622 06005KT

Example: see airport list